Time;durP1;ratioP1;P1;durP2;ratioP2;P2;SDS_P1;SDS_P2;PMS_P1;PMS_P2;Temp;Humidity;BMP_temperature;BMP_pressure;BME280_temperature;BME280_humidity;BME280_pressure;Samples;Min_cycle;Max_cycle;Signal;HPM_P1;HPM_P2
2023/07/06 00:01:48;;;;;;;3.57;1.70;;;13.90;65.50;;;;;;5008059;28;20185;-68
2023/07/06 00:04:16;;;;;;;1.23;1.13;;;13.90;64.80;;;;;;5009123;28;20490;-68
2023/07/06 00:06:43;;;;;;;1.20;1.00;;;13.90;62.80;;;;;;5012007;28;20212;-67
2023/07/06 00:09:11;;;;;;;0.80;0.80;;;13.80;61.80;;;;;;5006940;28;20201;-66
2023/07/06 00:11:39;;;;;;;1.80;1.10;;;13.80;61.50;;;;;;5009265;28;20723;-68
2023/07/06 00:14:09;;;;;;;1.33;1.23;;;13.80;61.30;;;;;;5006544;28;20548;-69
2023/07/06 00:16:41;;;;;;;0.80;0.80;;;14.00;61.20;;;;;;4992987;28;20177;-69
2023/07/06 00:19:11;;;;;;;1.00;0.90;;;14.10;61.10;;;;;;5010915;28;20654;-66
2023/07/06 00:21:38;;;;;;;2.83;0.90;;;14.30;60.40;;;;;;5010106;28;20189;-69
2023/07/06 00:24:07;;;;;;;0.80;0.80;;;14.30;60.30;;;;;;5009598;28;20201;-69
2023/07/06 00:26:35;;;;;;;1.83;1.10;;;14.40;58.90;;;;;;5005207;28;20185;-68
2023/07/06 00:29:04;;;;;;;2.60;0.90;;;14.30;58.80;;;;;;5005707;28;20256;-72
2023/07/06 00:31:32;;;;;;;1.17;0.90;;;14.40;59.60;;;;;;5011484;28;20200;-69
2023/07/06 00:34:05;;;;;;;5.33;1.60;;;14.50;59.50;;;;;;5011981;28;20185;-68
2023/07/06 00:36:37;;;;;;;2.37;1.40;;;14.60;61.20;;;;;;5008682;28;20224;-69
2023/07/06 00:39:05;;;;;;;8.73;1.53;;;14.70;62.40;;;;;;5011653;28;20177;-69
2023/07/06 00:41:33;;;;;;;4.00;1.60;;;14.70;61.20;;;;;;4988076;28;20181;-68
2023/07/06 00:44:01;;;;;;;2.97;1.47;;;14.80;60.60;;;;;;5009410;28;20600;-71
2023/07/06 00:46:36;;;;;;;2.90;1.60;;;14.90;60.00;;;;;;5009805;28;20193;-68
2023/07/06 00:49:05;;;;;;;2.77;1.20;;;15.00;60.30;;;;;;5007564;28;20621;-68
2023/07/06 00:51:39;;;;;;;5.23;1.47;;;15.00;58.50;;;;;;5007231;28;20188;-68
2023/07/06 00:54:16;;;;;;;1.83;1.33;;;14.90;58.30;;;;;;5003696;28;20197;-68
2023/07/06 00:56:47;;;;;;;2.27;1.53;;;15.10;58.90;;;;;;5001086;28;20340;-67
2023/07/06 00:59:19;;;;;;;2.30;1.30;;;15.10;58.60;;;;;;5006795;28;20192;-67
2023/07/06 01:01:47;;;;;;;5.23;1.30;;;15.30;57.10;;;;;;5005540;28;20643;-66
2023/07/06 01:04:18;;;;;;;2.03;1.50;;;15.40;57.10;;;;;;5007073;28;20181;-68
2023/07/06 01:06:51;;;;;;;1.37;1.10;;;15.50;56.80;;;;;;5006273;28;20189;-67
2023/07/06 01:09:19;;;;;;;1.50;0.97;;;15.40;55.20;;;;;;5005480;28;20307;-69
2023/07/06 01:11:47;;;;;;;2.13;1.10;;;15.40;56.00;;;;;;5005517;28;20651;-67
2023/07/06 01:14:15;;;;;;;1.60;1.13;;;15.70;55.30;;;;;;5007393;28;20636;-67
2023/07/06 01:17:24;;;;;;;3.50;0.90;;;15.50;53.80;;;;;;5007675;28;20365;-66
2023/07/06 01:20:14;;;;;;;1.27;1.10;;;15.60;54.40;;;;;;5006074;28;20193;-65
2023/07/06 01:23:10;;;;;;;2.50;1.07;;;15.80;53.90;;;;;;5005228;28;20196;-68
2023/07/06 01:26:04;;;;;;;2.33;1.50;;;16.00;53.40;;;;;;5005522;28;20196;-67
2023/07/06 01:29:10;;;;;;;2.93;1.50;;;16.20;54.10;;;;;;5004778;28;20713;-67
2023/07/06 01:31:56;;;;;;;1.83;1.43;;;16.30;54.40;;;;;;5005895;28;20217;-66
2023/07/06 01:34:43;;;;;;;3.23;1.50;;;16.10;55.10;;;;;;5006023;28;20186;-67
2023/07/06 01:37:36;;;;;;;1.20;1.10;;;16.10;53.60;;;;;;5004031;28;20214;-67
2023/07/06 01:40:09;;;;;;;5.73;1.40;;;16.20;52.20;;;;;;5005866;28;20176;-68
2023/07/06 01:42:40;;;;;;;2.67;1.33;;;16.30;54.10;;;;;;5009295;28;20191;-66
2023/07/06 01:45:16;;;;;;;3.77;1.30;;;16.30;53.20;;;;;;5007398;28;20618;-66
2023/07/06 01:47:50;;;;;;;1.00;0.90;;;16.30;53.10;;;;;;5006167;28;20260;-66
2023/07/06 01:50:21;;;;;;;0.70;0.70;;;16.40;50.40;;;;;;5006513;28;20251;-67
2023/07/06 01:53:40;;;;;;;2.90;1.00;;;16.40;50.00;;;;;;5012438;28;20672;-66
2023/07/06 01:56:34;;;;;;;1.53;1.10;;;16.50;50.30;;;;;;4972441;28;20195;-67
2023/07/06 01:59:07;;;;;;;1.80;1.07;;;16.50;50.10;;;;;;5007993;28;20191;-67
2023/07/06 02:01:46;;;;;;;2.20;0.80;;;16.60;50.20;;;;;;5002882;28;20699;-68
2023/07/06 02:04:13;;;;;;;3.40;0.87;;;16.70;49.90;;;;;;5002979;28;20260;-67
2023/07/06 02:06:41;;;;;;;0.90;0.70;;;16.90;49.30;;;;;;5004903;28;20653;-68
2023/07/06 02:09:18;;;;;;;3.57;1.07;;;17.00;48.70;;;;;;5007218;28;20215;-69
2023/07/06 02:11:45;;;;;;;0.73;0.67;;;17.00;50.10;;;;;;5004258;28;20212;-68
2023/07/06 02:14:12;;;;;;;0.70;0.70;;;17.20;47.60;;;;;;5009374;28;20188;-67
2023/07/06 02:16:40;;;;;;;3.47;0.90;;;17.20;48.30;;;;;;5000611;28;20224;-69
2023/07/06 02:19:08;;;;;;;7.93;1.20;;;17.40;48.60;;;;;;4999758;28;20192;-69
2023/07/06 02:21:36;;;;;;;1.10;0.90;;;17.50;48.60;;;;;;5007840;28;20221;-67
2023/07/06 02:24:09;;;;;;;0.80;0.80;;;17.50;48.70;;;;;;5003965;28;20194;-68
2023/07/06 02:26:36;;;;;;;1.17;0.90;;;17.50;48.10;;;;;;5007505;28;20648;-67
2023/07/06 02:29:04;;;;;;;4.33;1.20;;;17.40;48.10;;;;;;5008332;28;20558;-66
2023/07/06 02:31:31;;;;;;;3.23;1.00;;;17.50;48.00;;;;;;4992387;28;20179;-67
2023/07/06 02:33:59;;;;;;;2.43;1.17;;;17.70;48.40;;;;;;5005849;28;20193;-68
2023/07/06 02:36:27;;;;;;;1.10;0.90;;;18.00;47.60;;;;;;5005427;28;20243;-69
2023/07/06 02:38:56;;;;;;;4.17;1.00;;;18.00;47.00;;;;;;5007930;28;20192;-69
2023/07/06 02:41:24;;;;;;;1.43;0.80;;;18.20;46.50;;;;;;5005468;28;20238;-70
2023/07/06 02:43:52;;;;;;;2.50;0.70;;;18.20;45.70;;;;;;5001756;28;20590;-69
2023/07/06 02:46:20;;;;;;;1.70;0.80;;;18.20;45.30;;;;;;5006974;28;20181;-69
2023/07/06 02:48:48;;;;;;;0.87;0.80;;;17.90;46.90;;;;;;5008630;28;20553;-68
2023/07/06 02:51:15;;;;;;;1.50;0.90;;;18.20;46.10;;;;;;5005032;28;20205;-67
2023/07/06 02:53:43;;;;;;;2.70;0.80;;;18.20;45.90;;;;;;4987988;28;20177;-65
2023/07/06 02:56:10;;;;;;;1.30;0.90;;;17.90;45.20;;;;;;5002237;28;20656;-70
2023/07/06 02:58:37;;;;;;;2.13;1.00;;;17.80;45.80;;;;;;5006234;28;20201;-65
2023/07/06 03:01:05;;;;;;;1.40;0.87;;;17.80;46.60;;;;;;5005158;28;20678;-69
2023/07/06 03:03:32;;;;;;;1.17;0.97;;;17.80;46.60;;;;;;5006161;28;20221;-67
2023/07/06 03:06:02;;;;;;;1.03;0.80;;;17.80;46.30;;;;;;5005802;28;20282;-67
2023/07/06 03:08:30;;;;;;;5.50;1.00;;;17.70;46.60;;;;;;5006624;28;20195;-68
2023/07/06 03:10:57;;;;;;;0.97;0.90;;;17.70;45.90;;;;;;5007031;28;20275;-70
2023/07/06 03:13:28;;;;;;;2.87;0.90;;;17.50;46.90;;;;;;5002055;28;20549;-68
2023/07/06 03:15:59;;;;;;;5.60;0.90;;;17.70;47.00;;;;;;5001578;28;20634;-69
2023/07/06 03:18:26;;;;;;;2.90;0.87;;;17.80;46.40;;;;;;5005177;28;20217;-67
2023/07/06 03:20:55;;;;;;;2.30;0.90;;;18.00;46.10;;;;;;5006435;28;20600;-69
2023/07/06 03:23:23;;;;;;;0.80;0.70;;;18.00;45.80;;;;;;5001658;28;20594;-65
2023/07/06 03:25:52;;;;;;;1.30;1.00;;;18.00;45.70;;;;;;5005406;28;20278;-67
2023/07/06 03:28:20;;;;;;;2.17;0.97;;;17.90;45.80;;;;;;5004990;28;20635;-66
2023/07/06 03:30:57;;;;;;;1.37;1.17;;;17.80;46.20;;;;;;5006996;28;20291;-65
2023/07/06 03:33:25;;;;;;;1.90;0.97;;;18.00;45.80;;;;;;5007831;28;20218;-67
2023/07/06 03:35:58;;;;;;;4.60;1.33;;;18.30;45.70;;;;;;5007401;28;20225;-67
2023/07/06 03:38:26;;;;;;;1.70;1.00;;;18.80;44.50;;;;;;5006785;28;20268;-68
2023/07/06 03:40:54;;;;;;;3.03;0.90;;;18.90;44.40;;;;;;5007598;28;20580;-66
2023/07/06 03:43:21;;;;;;;2.43;1.00;;;19.20;43.60;;;;;;5008100;28;20658;-66
2023/07/06 03:45:49;;;;;;;0.83;0.70;;;19.30;42.80;;;;;;5004792;28;20185;-65
2023/07/06 03:48:16;;;;;;;1.10;0.70;;;19.70;42.40;;;;;;5001744;28;20184;-67
2023/07/06 03:50:44;;;;;;;1.10;0.80;;;19.90;42.70;;;;;;5002364;28;20214;-65
2023/07/06 03:53:12;;;;;;;0.80;0.80;;;20.10;41.80;;;;;;5007864;28;20512;-67
2023/07/06 03:55:40;;;;;;;0.80;0.70;;;19.90;41.70;;;;;;5007736;28;20201;-65
2023/07/06 03:58:08;;;;;;;0.87;0.67;;;20.00;41.60;;;;;;5005268;28;20574;-67
2023/07/06 04:00:36;;;;;;;0.90;0.70;;;20.20;40.20;;;;;;5006065;28;20855;-65
2023/07/06 04:03:04;;;;;;;3.10;1.00;;;19.80;41.20;;;;;;5006558;28;20276;-69
2023/07/06 04:05:38;;;;;;;3.70;1.10;;;20.30;40.90;;;;;;5007524;28;20268;-67
2023/07/06 04:08:16;;;;;;;1.90;0.90;;;20.40;40.50;;;;;;5007560;28;20185;-67
2023/07/06 04:10:44;;;;;;;1.00;0.80;;;20.00;40.70;;;;;;5001512;28;20220;-66
2023/07/06 04:13:13;;;;;;;3.70;0.70;;;20.30;40.50;;;;;;5010527;28;20236;-66
2023/07/06 04:15:45;;;;;;;1.03;0.70;;;20.60;39.80;;;;;;5008107;28;20640;-67
2023/07/06 04:18:15;;;;;;;0.67;0.67;;;20.80;39.00;;;;;;4996570;28;20182;-65
2023/07/06 04:20:42;;;;;;;3.13;0.90;;;20.80;39.60;;;;;;5005295;28;20651;-68
2023/07/06 04:23:10;;;;;;;0.90;0.70;;;21.10;39.20;;;;;;4999669;28;20179;-66
2023/07/06 04:25:43;;;;;;;1.10;0.60;;;21.10;38.40;;;;;;5003353;28;20280;-65
2023/07/06 04:28:14;;;;;;;1.63;0.80;;;21.20;38.30;;;;;;5008505;28;20181;-66
2023/07/06 04:30:45;;;;;;;1.07;0.80;;;21.30;38.40;;;;;;4976646;28;20251;-66
2023/07/06 04:33:19;;;;;;;1.70;0.80;;;21.20;37.80;;;;;;5006118;28;20174;-67
2023/07/06 04:35:53;;;;;;;2.30;0.80;;;19.60;41.00;;;;;;5001834;28;20322;-67
2023/07/06 04:38:22;;;;;;;0.87;0.70;;;18.90;42.90;;;;;;5004199;28;20182;-67
2023/07/06 04:40:51;;;;;;;1.00;0.70;;;18.50;43.40;;;;;;5010776;28;20549;-68
2023/07/06 04:43:19;;;;;;;0.60;0.60;;;17.80;44.60;;;;;;5008349;28;20192;-70
2023/07/06 04:45:46;;;;;;;1.03;0.87;;;17.50;45.00;;;;;;5006245;28;20211;-67
2023/07/06 04:48:16;;;;;;;1.10;0.80;;;17.50;45.60;;;;;;5007715;28;20185;-67
2023/07/06 04:50:44;;;;;;;1.30;0.87;;;17.30;46.00;;;;;;5009282;28;20256;-64
2023/07/06 04:53:12;;;;;;;1.63;0.80;;;17.30;47.00;;;;;;5008185;28;20191;-68
2023/07/06 04:55:39;;;;;;;3.10;0.87;;;17.30;47.20;;;;;;5007606;28;20192;-67
2023/07/06 04:58:06;;;;;;;2.73;0.80;;;17.20;46.90;;;;;;5005875;28;20181;-67
2023/07/06 05:00:39;;;;;;;0.93;0.80;;;17.10;47.60;;;;;;5009572;28;20188;-67
2023/07/06 05:03:08;;;;;;;1.33;0.90;;;17.10;48.10;;;;;;5007904;28;20177;-67
2023/07/06 05:05:40;;;;;;;3.43;1.10;;;17.20;48.10;;;;;;5010321;28;20649;-66
2023/07/06 05:08:10;;;;;;;0.90;0.90;;;18.20;46.10;;;;;;5009806;28;20682;-68
2023/07/06 05:10:38;;;;;;;2.13;1.20;;;18.00;45.60;;;;;;5009492;28;20239;-66
2023/07/06 05:13:06;;;;;;;1.43;0.80;;;17.60;45.70;;;;;;5004363;28;20307;-67
2023/07/06 05:15:38;;;;;;;1.53;0.80;;;17.40;47.30;;;;;;5008211;28;20334;-67
2023/07/06 05:18:06;;;;;;;6.03;1.10;;;17.20;47.30;;;;;;5009535;28;20190;-65
2023/07/06 05:20:34;;;;;;;1.40;0.90;;;17.10;47.80;;;;;;5006590;28;20716;-69
2023/07/06 05:23:03;;;;;;;2.90;1.03;;;17.00;47.70;;;;;;5008199;28;20188;-66
2023/07/06 05:25:30;;;;;;;4.00;0.87;;;16.80;47.20;;;;;;5005150;28;20274;-67
2023/07/06 05:27:58;;;;;;;1.13;0.70;;;16.70;46.90;;;;;;5007550;28;20324;-64
2023/07/06 05:30:25;;;;;;;1.50;0.80;;;16.70;46.30;;;;;;5000858;28;20316;-68
2023/07/06 05:32:52;;;;;;;1.57;0.87;;;16.80;46.20;;;;;;5005731;28;20635;-66
2023/07/06 05:35:22;;;;;;;1.70;1.20;;;16.80;45.80;;;;;;5004803;28;20233;-66
2023/07/06 05:37:51;;;;;;;1.00;0.70;;;17.10;44.40;;;;;;5009851;28;20676;-69
2023/07/06 05:40:18;;;;;;;2.43;0.90;;;16.80;45.00;;;;;;5010483;28;20188;-67
2023/07/06 05:42:46;;;;;;;1.73;0.80;;;16.70;45.70;;;;;;5003116;28;20537;-70
2023/07/06 05:45:13;;;;;;;4.17;0.73;;;16.50;46.10;;;;;;5006106;28;20181;-69
2023/07/06 05:47:41;;;;;;;1.20;0.90;;;16.30;46.60;;;;;;5009163;28;20601;-69
2023/07/06 05:50:09;;;;;;;1.57;0.70;;;16.20;46.30;;;;;;5011593;28;20216;-66
2023/07/06 05:52:36;;;;;;;2.13;0.80;;;16.10;45.50;;;;;;5006302;28;20177;-66
2023/07/06 05:55:03;;;;;;;0.70;0.70;;;16.10;46.20;;;;;;5011701;28;20202;-68
2023/07/06 05:57:31;;;;;;;2.73;0.90;;;16.10;45.90;;;;;;5005178;28;20190;-70
2023/07/06 05:59:59;;;;;;;1.57;1.00;;;16.00;46.10;;;;;;4992400;28;20231;-67
2023/07/06 06:02:27;;;;;;;0.90;0.80;;;16.00;46.30;;;;;;5004700;28;20178;-69
2023/07/06 06:04:55;;;;;;;1.27;0.70;;;16.00;46.30;;;;;;5002104;28;20614;-70
2023/07/06 06:07:22;;;;;;;1.27;1.13;;;15.90;46.80;;;;;;5002855;28;20205;-66
2023/07/06 06:09:50;;;;;;;1.37;0.90;;;16.00;46.90;;;;;;5005277;28;20222;-68
2023/07/06 06:12:20;;;;;;;2.67;0.90;;;16.00;46.70;;;;;;5006334;28;20659;-68
2023/07/06 06:14:52;;;;;;;0.80;0.80;;;16.00;47.20;;;;;;5005838;28;20190;-69
2023/07/06 06:17:20;;;;;;;0.80;0.80;;;16.00;46.30;;;;;;5003693;28;20183;-68
2023/07/06 06:19:48;;;;;;;1.20;1.10;;;16.00;46.40;;;;;;5004077;28;20710;-69
2023/07/06 06:22:18;;;;;;;1.00;0.80;;;16.00;46.20;;;;;;5009895;28;20558;-67
2023/07/06 06:24:46;;;;;;;0.87;0.77;;;16.00;45.50;;;;;;5006117;28;20284;-69
2023/07/06 06:27:15;;;;;;;1.17;0.90;;;16.10;45.40;;;;;;4989688;28;20248;-67
2023/07/06 06:29:43;;;;;;;1.90;0.70;;;16.20;45.70;;;;;;5002221;28;20217;-69
2023/07/06 06:32:12;;;;;;;1.97;0.90;;;16.30;45.40;;;;;;5004871;28;20191;-65
2023/07/06 06:34:41;;;;;;;0.70;0.70;;;16.30;45.00;;;;;;5007017;28;20259;-68
2023/07/06 06:37:09;;;;;;;2.27;1.10;;;16.20;45.00;;;;;;5008001;28;20649;-67
2023/07/06 06:39:36;;;;;;;4.83;1.00;;;16.20;44.30;;;;;;5007680;28;20285;-67
2023/07/06 06:42:04;;;;;;;1.00;0.90;;;16.10;44.40;;;;;;5010660;28;20209;-65
2023/07/06 06:44:32;;;;;;;0.83;0.80;;;16.10;44.50;;;;;;4999670;28;20190;-65
2023/07/06 06:47:04;;;;;;;3.90;0.80;;;16.00;44.00;;;;;;5000095;28;20192;-67
2023/07/06 06:49:35;;;;;;;1.33;0.80;;;16.00;44.00;;;;;;5000389;28;20234;-66
2023/07/06 06:52:03;;;;;;;0.70;0.70;;;15.90;44.30;;;;;;5009832;28;20191;-66
2023/07/06 06:54:31;;;;;;;0.70;0.70;;;15.80;43.70;;;;;;5001189;28;20190;-64
2023/07/06 06:56:59;;;;;;;0.73;0.73;;;15.80;43.70;;;;;;5008898;28;20182;-65
2023/07/06 06:59:27;;;;;;;1.10;1.00;;;15.80;44.10;;;;;;4984172;28;20181;-68
2023/07/06 07:02:00;;;;;;;0.97;0.83;;;15.70;44.10;;;;;;5009233;28;20191;-67
2023/07/06 07:04:29;;;;;;;0.87;0.87;;;15.60;44.10;;;;;;5004721;28;20193;-67
2023/07/06 07:06:57;;;;;;;1.33;0.90;;;15.50;44.50;;;;;;5004172;28;20194;-65
2023/07/06 07:09:24;;;;;;;1.30;1.03;;;15.40;45.00;;;;;;5004200;28;20217;-67
2023/07/06 07:11:52;;;;;;;1.87;0.97;;;15.30;45.30;;;;;;5004673;28;20655;-66
2023/07/06 07:14:19;;;;;;;1.40;1.10;;;15.20;45.60;;;;;;5003134;28;20530;-66
2023/07/06 07:16:47;;;;;;;1.10;1.00;;;15.10;46.00;;;;;;5002638;28;20655;-66
2023/07/06 07:19:14;;;;;;;2.10;1.30;;;15.00;46.30;;;;;;5004718;28;20185;-66
2023/07/06 07:21:41;;;;;;;4.33;1.40;;;14.90;46.40;;;;;;5004045;28;20197;-66
2023/07/06 07:24:09;;;;;;;1.70;1.30;;;14.90;46.60;;;;;;5005055;28;20192;-65
2023/07/06 07:26:36;;;;;;;2.23;1.80;;;14.80;46.80;;;;;;5006469;28;20196;-65
2023/07/06 07:29:04;;;;;;;1.53;1.40;;;14.80;47.10;;;;;;5003216;28;20216;-67
2023/07/06 07:31:32;;;;;;;2.93;1.60;;;14.70;47.50;;;;;;5002420;28;20197;-64
2023/07/06 07:33:59;;;;;;;2.43;1.80;;;14.60;47.80;;;;;;5005012;28;20181;-67
2023/07/06 07:36:27;;;;;;;2.30;1.60;;;14.50;48.20;;;;;;4999931;28;20236;-64
2023/07/06 07:38:56;;;;;;;1.87;1.53;;;14.40;48.70;;;;;;5005810;28;20264;-65
2023/07/06 07:41:24;;;;;;;1.90;1.50;;;14.30;49.00;;;;;;5003806;28;20202;-67
2023/07/06 07:43:51;;;;;;;1.93;1.40;;;14.30;49.60;;;;;;5003702;28;20585;-68
2023/07/06 07:46:20;;;;;;;1.53;1.30;;;14.20;49.70;;;;;;4996915;28;20245;-68
2023/07/06 07:48:50;;;;;;;1.60;1.47;;;14.20;50.10;;;;;;5007524;28;20185;-65
2023/07/06 07:51:23;;;;;;;1.60;1.50;;;14.10;50.30;;;;;;5006039;28;20234;-65
2023/07/06 07:53:52;;;;;;;2.40;1.70;;;14.10;50.60;;;;;;5003648;28;20173;-66
2023/07/06 07:56:21;;;;;;;3.87;1.70;;;14.00;51.00;;;;;;5004974;28;20192;-64
2023/07/06 07:58:48;;;;;;;3.20;1.70;;;14.00;51.30;;;;;;5004258;28;20220;-66
2023/07/06 08:01:20;;;;;;;5.67;1.63;;;14.00;51.40;;;;;;5005128;28;20197;-67
2023/07/06 08:03:48;;;;;;;2.10;1.90;;;13.90;51.50;;;;;;5004506;28;20182;-64
2023/07/06 08:06:18;;;;;;;4.57;1.93;;;13.80;52.10;;;;;;5007837;28;20185;-65
2023/07/06 08:08:47;;;;;;;2.93;2.00;;;13.80;52.10;;;;;;5004612;28;20244;-66
2023/07/06 08:11:23;;;;;;;6.80;2.30;;;13.70;52.60;;;;;;5010347;28;20193;-67
2023/07/06 08:13:55;;;;;;;2.23;2.00;;;13.70;52.90;;;;;;5011518;28;20531;-65
2023/07/06 08:16:24;;;;;;;3.30;2.30;;;13.60;53.20;;;;;;5009618;28;20196;-67
2023/07/06 08:18:52;;;;;;;6.87;2.80;;;13.60;53.70;;;;;;5008516;28;20193;-65
2023/07/06 08:21:19;;;;;;;4.73;2.90;;;13.50;53.30;;;;;;5009909;28;20185;-67
2023/07/06 08:23:51;;;;;;;6.07;2.50;;;13.50;53.60;;;;;;5010889;28;20307;-65
2023/07/06 08:26:18;;;;;;;6.23;2.80;;;13.40;53.50;;;;;;5004324;28;20192;-67
2023/07/06 08:28:46;;;;;;;6.10;3.70;;;13.50;53.70;;;;;;5005527;28;20205;-65
2023/07/06 08:31:16;;;;;;;5.17;3.90;;;13.40;53.50;;;;;;5004275;28;20199;-65
2023/07/06 08:33:43;;;;;;;7.13;4.47;;;13.50;53.50;;;;;;5008067;28;20268;-68
2023/07/06 08:36:11;;;;;;;5.00;3.60;;;13.50;54.30;;;;;;5004986;28;20214;-67
2023/07/06 08:38:38;;;;;;;6.37;4.10;;;13.50;54.30;;;;;;5005791;28;20175;-67
2023/07/06 08:41:48;;;;;;;5.63;3.70;;;13.40;54.70;;;;;;5006386;28;20198;-68
2023/07/06 08:44:17;;;;;;;4.30;2.87;;;13.30;54.90;;;;;;4965194;28;20210;-68
2023/07/06 08:46:47;;;;;;;2.90;2.40;;;13.30;54.20;;;;;;5001462;28;20278;-70
2023/07/06 08:49:36;;;;;;;4.07;2.77;;;13.30;54.40;;;;;;5009604;28;20236;-67
2023/07/06 08:52:06;;;;;;;3.63;2.40;;;13.30;55.00;;;;;;5006287;28;20197;-65
2023/07/06 08:54:41;;;;;;;2.80;2.27;;;13.40;55.00;;;;;;5004496;28;20244;-65
2023/07/06 08:57:24;;;;;;;6.17;2.47;;;13.40;55.80;;;;;;5009144;28;20212;-65
2023/07/06 08:59:52;;;;;;;3.00;2.33;;;13.50;55.10;;;;;;5004988;28;20640;-65
2023/07/06 09:02:23;;;;;;;2.93;1.90;;;13.50;54.70;;;;;;5007749;28;20264;-64
2023/07/06 09:04:53;;;;;;;3.03;2.60;;;13.50;54.50;;;;;;5004142;28;20216;-66
2023/07/06 09:07:42;;;;;;;6.63;2.57;;;13.40;54.30;;;;;;5001458;28;20233;-65
2023/07/06 09:10:23;;;;;;;2.77;2.10;;;13.50;55.50;;;;;;5007008;28;20228;-67
2023/07/06 09:12:53;;;;;;;5.97;2.40;;;13.40;56.50;;;;;;5001732;28;20272;-65
2023/07/06 09:15:30;;;;;;;5.63;2.57;;;13.30;56.80;;;;;;5008970;28;20595;-64
2023/07/06 09:18:03;;;;;;;5.33;2.97;;;13.30;57.80;;;;;;5004852;28;20575;-64
2023/07/06 09:20:32;;;;;;;7.27;3.23;;;13.30;57.80;;;;;;5010344;28;20182;-66
2023/07/06 09:23:01;;;;;;;5.77;3.57;;;13.20;57.90;;;;;;4999582;28;20235;-66
2023/07/06 09:25:36;;;;;;;4.53;2.80;;;13.30;58.50;;;;;;5006226;28;20220;-66
2023/07/06 09:28:07;;;;;;;9.77;3.03;;;13.30;58.70;;;;;;5003627;28;20204;-67
2023/07/06 09:30:39;;;;;;;5.53;2.93;;;13.20;59.10;;;;;;5005702;28;20210;-65
2023/07/06 09:33:26;;;;;;;4.63;2.47;;;13.20;59.80;;;;;;5006838;28;20177;-65
2023/07/06 09:35:58;;;;;;;7.10;2.70;;;13.10;59.60;;;;;;5008499;28;20259;-65
2023/07/06 09:38:27;;;;;;;4.47;3.10;;;13.10;60.30;;;;;;5011322;28;20243;-67
2023/07/06 09:40:55;;;;;;;5.33;2.73;;;13.00;60.60;;;;;;5004554;28;20243;-65
2023/07/06 09:43:37;;;;;;;3.93;2.60;;;13.00;60.30;;;;;;5007269;28;20236;-65
2023/07/06 09:46:08;;;;;;;5.77;2.83;;;12.90;60.50;;;;;;5011427;28;20283;-66
2023/07/06 09:48:38;;;;;;;5.30;2.67;;;12.80;60.30;;;;;;5009087;28;20735;-67
2023/07/06 09:51:29;;;;;;;3.80;2.50;;;12.80;60.80;;;;;;5002621;28;20196;-65
2023/07/06 09:54:03;;;;;;;3.53;2.50;;;12.70;60.20;;;;;;5010703;28;20181;-64
2023/07/06 09:56:31;;;;;;;3.73;2.40;;;12.70;60.50;;;;;;5004460;28;20187;-66
2023/07/06 09:59:02;;;;;;;3.87;2.83;;;12.70;60.90;;;;;;5007695;28;20682;-67
2023/07/06 10:01:42;;;;;;;4.67;2.40;;;12.60;61.00;;;;;;5003301;28;20191;-66
2023/07/06 10:04:39;;;;;;;3.30;2.63;;;12.60;61.50;;;;;;5004314;28;20181;-67
2023/07/06 10:07:19;;;;;;;5.10;2.40;;;12.60;61.50;;;;;;5004992;28;20188;-65
2023/07/06 10:09:51;;;;;;;4.10;2.60;;;12.60;61.10;;;;;;5006743;28;20216;-67
2023/07/06 10:12:38;;;;;;;3.93;2.30;;;12.60;61.50;;;;;;5008874;28;20181;-66
2023/07/06 10:15:19;;;;;;;2.67;2.23;;;12.70;61.80;;;;;;5005591;28;20197;-68
2023/07/06 10:17:55;;;;;;;2.90;2.40;;;12.70;61.40;;;;;;4991959;28;20518;-66
2023/07/06 10:20:52;;;;;;;2.63;2.03;;;12.70;61.20;;;;;;5007644;28;20320;-66
2023/07/06 10:23:35;;;;;;;2.33;2.10;;;12.70;61.50;;;;;;5002851;28;20254;-65
2023/07/06 10:26:17;;;;;;;2.87;2.10;;;12.70;61.50;;;;;;5006419;28;20627;-66
2023/07/06 10:29:01;;;;;;;2.30;2.10;;;12.70;62.00;;;;;;5010219;28;20862;-66
2023/07/06 10:31:56;;;;;;;2.17;1.90;;;12.60;62.30;;;;;;5007749;28;20208;-66
2023/07/06 10:34:32;;;;;;;2.07;1.87;;;12.50;62.70;;;;;;5007752;28;20303;-65
2023/07/06 10:37:02;;;;;;;2.33;1.87;;;12.50;63.20;;;;;;5010848;28;20234;-65
2023/07/06 10:39:30;;;;;;;3.93;1.87;;;12.40;63.60;;;;;;5005440;28;20180;-66
2023/07/06 10:42:09;;;;;;;2.43;1.90;;;12.40;63.80;;;;;;5006674;28;20178;-66
2023/07/06 10:44:46;;;;;;;2.30;1.93;;;12.40;63.90;;;;;;5002056;28;20200;-67
2023/07/06 10:47:44;;;;;;;2.20;1.80;;;12.40;64.50;;;;;;5000974;28;20185;-67
2023/07/06 10:50:19;;;;;;;2.37;1.77;;;12.40;64.80;;;;;;5007029;28;20546;-66
2023/07/06 10:53:17;;;;;;;3.00;1.87;;;12.30;64.70;;;;;;5002946;28;20184;-66
2023/07/06 10:55:58;;;;;;;4.00;1.80;;;12.30;65.10;;;;;;5001109;28;20740;-66
2023/07/06 10:58:30;;;;;;;2.90;2.00;;;12.30;65.40;;;;;;5007911;28;20185;-66
2023/07/06 11:01:00;;;;;;;2.17;1.60;;;12.30;66.00;;;;;;5005852;28;20594;-67
2023/07/06 11:03:31;;;;;;;3.23;2.57;;;12.30;65.60;;;;;;5007399;28;20182;-66
2023/07/06 11:06:07;;;;;;;1.70;1.60;;;12.30;65.90;;;;;;5002449;28;20193;-66
2023/07/06 11:09:13;;;;;;;1.60;1.50;;;12.30;65.90;;;;;;5005932;28;20207;-64
2023/07/06 11:11:54;;;;;;;1.73;1.63;;;12.30;66.00;;;;;;5002762;28;20184;-65
2023/07/06 11:14:33;;;;;;;1.47;1.37;;;12.30;66.00;;;;;;5001807;28;20306;-65
2023/07/06 11:17:19;;;;;;;2.40;1.90;;;12.30;66.10;;;;;;5003576;28;20181;-66
2023/07/06 11:20:13;;;;;;;1.50;1.40;;;12.30;66.50;;;;;;5002363;28;20226;-65
2023/07/06 11:22:44;;;;;;;1.57;1.37;;;12.20;66.50;;;;;;5000606;28;20189;-66
2023/07/06 11:25:14;;;;;;;1.67;1.47;;;12.20;66.40;;;;;;5007814;28;20212;-66
2023/07/06 11:27:45;;;;;;;1.43;1.30;;;12.20;66.60;;;;;;5000926;28;20733;-66
2023/07/06 11:30:47;;;;;;;1.63;1.40;;;12.20;66.80;;;;;;5006292;28;20212;-69
2023/07/06 11:33:32;;;;;;;1.60;1.50;;;12.20;66.90;;;;;;5004166;28;20185;-67
2023/07/06 11:36:06;;;;;;;8.00;6.83;;;12.20;66.70;;;;;;5009459;28;20230;-67
2023/07/06 11:39:01;;;;;;;3.37;1.83;;;12.20;67.10;;;;;;5010301;28;20577;-65
2023/07/06 11:41:53;;;;;;;4.03;1.80;;;12.20;67.10;;;;;;5010161;28;20273;-66
2023/07/06 11:44:52;;;;;;;1.87;1.60;;;12.20;67.40;;;;;;5004901;28;20315;-66
2023/07/06 11:47:53;;;;;;;1.90;1.60;;;12.10;67.30;;;;;;5011323;28;20677;-67
2023/07/06 11:50:22;;;;;;;1.23;1.13;;;12.10;67.70;;;;;;5011397;28;20696;-66
2023/07/06 11:53:17;;;;;;;3.73;1.60;;;12.10;67.90;;;;;;5009983;28;20193;-65
2023/07/06 11:55:54;;;;;;;1.50;1.33;;;12.10;68.00;;;;;;5013853;28;20181;-65
2023/07/06 11:59:36;;;;;;;1.90;1.50;;;12.00;68.30;;;;;;5008684;28;20228;-66
2023/07/06 12:01:32;;;;;;;3.97;1.60;;;12.00;68.80;;;;;;4989632;28;20557;-67
2023/07/06 12:04:02;;;;;;;1.30;1.20;;;12.00;68.80;;;;;;5007666;28;20192;-65
2023/07/06 12:06:30;;;;;;;1.33;1.20;;;11.90;69.10;;;;;;5012797;28;20196;-66
2023/07/06 12:09:01;;;;;;;3.83;1.27;;;11.90;69.30;;;;;;5005277;28;20607;-66
2023/07/06 12:11:30;;;;;;;2.33;1.40;;;11.90;69.40;;;;;;5009227;28;20724;-65
2023/07/06 12:13:58;;;;;;;3.13;1.30;;;11.90;69.70;;;;;;5008216;28;20230;-65
2023/07/06 12:16:39;;;;;;;1.90;1.10;;;11.90;69.70;;;;;;5015553;28;20192;-67
2023/07/06 12:19:19;;;;;;;1.87;1.17;;;11.80;69.90;;;;;;5013481;28;20515;-67
2023/07/06 12:21:53;;;;;;;1.30;1.20;;;11.80;70.10;;;;;;5014895;28;20173;-66
2023/07/06 12:24:23;;;;;;;1.87;1.30;;;11.80;69.90;;;;;;5011407;28;20227;-67
2023/07/06 12:26:53;;;;;;;1.60;1.50;;;11.80;70.00;;;;;;5009663;28;20177;-64
2023/07/06 12:29:27;;;;;;;1.57;1.30;;;11.80;70.10;;;;;;5005850;28;20241;-64
2023/07/06 12:32:00;;;;;;;1.23;1.13;;;11.80;69.80;;;;;;5005793;28;20193;-65
2023/07/06 12:34:35;;;;;;;2.53;1.23;;;11.90;70.00;;;;;;5005113;28;20232;-64
2023/07/06 12:37:02;;;;;;;1.40;1.20;;;11.90;70.00;;;;;;5006312;28;20283;-65
2023/07/06 12:39:36;;;;;;;1.37;1.17;;;11.90;70.10;;;;;;5013295;28;20730;-65
2023/07/06 12:42:06;;;;;;;1.63;1.50;;;11.80;70.10;;;;;;5009928;28;20181;-64
2023/07/06 12:44:37;;;;;;;1.47;1.10;;;11.90;70.10;;;;;;5010105;28;20191;-65
2023/07/06 12:47:37;;;;;;;1.23;1.17;;;11.90;69.90;;;;;;5006391;28;20192;-67
2023/07/06 12:50:09;;;;;;;1.60;1.30;;;12.00;70.10;;;;;;5008460;28;20243;-66
2023/07/06 12:52:38;;;;;;;2.53;1.27;;;12.00;70.00;;;;;;5008354;28;20243;-65
2023/07/06 12:55:12;;;;;;;2.00;1.00;;;12.00;69.60;;;;;;5010903;28;20194;-66
2023/07/06 12:57:40;;;;;;;1.53;1.10;;;12.10;69.50;;;;;;4996795;28;20207;-66
2023/07/06 13:00:17;;;;;;;1.37;1.20;;;12.10;69.50;;;;;;5006637;28;20244;-63
2023/07/06 13:02:45;;;;;;;1.27;1.17;;;12.10;69.30;;;;;;5004288;28;20284;-64
2023/07/06 13:05:16;;;;;;;1.17;1.07;;;12.10;69.40;;;;;;5009756;28;20187;-65
2023/07/06 13:07:50;;;;;;;1.07;1.00;;;12.20;69.20;;;;;;5004490;28;20186;-65
2023/07/06 13:10:21;;;;;;;1.10;1.00;;;12.20;68.90;;;;;;5008238;28;20221;-63
2023/07/06 13:12:53;;;;;;;1.57;1.10;;;12.20;68.90;;;;;;5008088;28;20635;-67
2023/07/06 13:15:39;;;;;;;1.40;1.30;;;12.10;69.10;;;;;;5010856;28;20648;-68
2023/07/06 13:18:14;;;;;;;1.20;1.10;;;12.00;69.40;;;;;;5009781;28;20191;-65